sensor_id;sensor_type;location;lat;lon;timestamp;P1;durP1;ratioP1;P2;durP2;ratioP2
10144;SDS011;5113;41.822;23.564;2023-02-19T00:01:08;38.70;;;18.40;;
10144;SDS011;5113;41.822;23.564;2023-02-19T00:04:15;44.43;;;22.27;;
10144;SDS011;5113;41.822;23.564;2023-02-19T00:07:24;37.30;;;16.30;;
10144;SDS011;5113;41.822;23.564;2023-02-19T00:10:30;25.43;;;13.33;;
10144;SDS011;5113;41.822;23.564;2023-02-19T00:13:38;37.37;;;16.10;;
10144;SDS011;5113;41.822;23.564;2023-02-19T00:16:46;37.63;;;15.90;;
10144;SDS011;5113;41.822;23.564;2023-02-19T00:19:53;36.63;;;16.20;;
10144;SDS011;5113;41.822;23.564;2023-02-19T00:22:59;34.47;;;18.40;;
10144;SDS011;5113;41.822;23.564;2023-02-19T00:26:06;29.87;;;12.03;;
10144;SDS011;5113;41.822;23.564;2023-02-19T00:29:23;21.17;;;12.53;;
10144;SDS011;5113;41.822;23.564;2023-02-19T00:32:29;31.67;;;16.93;;
10144;SDS011;5113;41.822;23.564;2023-02-19T00:35:36;27.33;;;16.23;;
10144;SDS011;5113;41.822;23.564;2023-02-19T00:38:43;39.27;;;17.40;;
10144;SDS011;5113;41.822;23.564;2023-02-19T00:41:50;20.03;;;11.37;;
10144;SDS011;5113;41.822;23.564;2023-02-19T00:44:58;13.37;;;9.83;;
10144;SDS011;5113;41.822;23.564;2023-02-19T00:48:04;19.53;;;9.47;;
10144;SDS011;5113;41.822;23.564;2023-02-19T00:51:10;16.60;;;8.63;;
10144;SDS011;5113;41.822;23.564;2023-02-19T00:54:17;19.23;;;8.47;;
10144;SDS011;5113;41.822;23.564;2023-02-19T00:57:24;20.40;;;9.70;;
10144;SDS011;5113;41.822;23.564;2023-02-19T01:00:31;23.10;;;9.87;;
10144;SDS011;5113;41.822;23.564;2023-02-19T01:03:38;27.17;;;11.37;;
10144;SDS011;5113;41.822;23.564;2023-02-19T01:06:45;17.33;;;8.33;;
10144;SDS011;5113;41.822;23.564;2023-02-19T01:09:52;18.33;;;9.13;;
10144;SDS011;5113;41.822;23.564;2023-02-19T01:12:58;21.63;;;8.93;;
10144;SDS011;5113;41.822;23.564;2023-02-19T01:16:07;14.47;;;8.33;;
10144;SDS011;5113;41.822;23.564;2023-02-19T01:19:15;17.67;;;9.80;;
10144;SDS011;5113;41.822;23.564;2023-02-19T01:22:22;17.97;;;11.67;;
10144;SDS011;5113;41.822;23.564;2023-02-19T01:25:28;18.63;;;10.10;;
10144;SDS011;5113;41.822;23.564;2023-02-19T01:28:35;19.97;;;11.67;;
10144;SDS011;5113;41.822;23.564;2023-02-19T01:31:43;22.07;;;11.07;;
10144;SDS011;5113;41.822;23.564;2023-02-19T01:34:50;15.87;;;7.67;;
10144;SDS011;5113;41.822;23.564;2023-02-19T01:37:56;17.07;;;8.07;;
10144;SDS011;5113;41.822;23.564;2023-02-19T01:41:03;19.40;;;6.40;;
10144;SDS011;5113;41.822;23.564;2023-02-19T01:48:05;11.37;;;7.43;;
10144;SDS011;5113;41.822;23.564;2023-02-19T01:51:16;10.37;;;7.13;;
10144;SDS011;5113;41.822;23.564;2023-02-19T01:54:25;12.20;;;8.17;;
10144;SDS011;5113;41.822;23.564;2023-02-19T01:57:36;9.87;;;5.67;;
10144;SDS011;5113;41.822;23.564;2023-02-19T02:00:46;11.10;;;6.57;;
10144;SDS011;5113;41.822;23.564;2023-02-19T02:03:53;14.37;;;8.73;;
10144;SDS011;5113;41.822;23.564;2023-02-19T02:07:01;12.93;;;8.67;;
10144;SDS011;5113;41.822;23.564;2023-02-19T02:10:31;10.30;;;7.23;;
10144;SDS011;5113;41.822;23.564;2023-02-19T02:13:37;12.77;;;7.13;;
10144;SDS011;5113;41.822;23.564;2023-02-19T02:16:48;20.23;;;9.57;;
10144;SDS011;5113;41.822;23.564;2023-02-19T02:20:05;16.93;;;7.50;;
10144;SDS011;5113;41.822;23.564;2023-02-19T02:23:34;13.60;;;6.73;;
10144;SDS011;5113;41.822;23.564;2023-02-19T02:27:00;13.03;;;6.50;;
10144;SDS011;5113;41.822;23.564;2023-02-19T02:30:38;15.60;;;7.60;;
10144;SDS011;5113;41.822;23.564;2023-02-19T02:33:49;10.87;;;7.53;;
10144;SDS011;5113;41.822;23.564;2023-02-19T02:37:02;18.33;;;9.60;;
10144;SDS011;5113;41.822;23.564;2023-02-19T02:40:11;16.10;;;8.87;;
10144;SDS011;5113;41.822;23.564;2023-02-19T02:43:18;15.63;;;7.10;;
10144;SDS011;5113;41.822;23.564;2023-02-19T02:46:27;15.00;;;6.63;;
10144;SDS011;5113;41.822;23.564;2023-02-19T02:49:39;12.70;;;6.57;;
10144;SDS011;5113;41.822;23.564;2023-02-19T02:53:06;15.93;;;7.33;;
10144;SDS011;5113;41.822;23.564;2023-02-19T02:56:33;15.60;;;7.77;;
10144;SDS011;5113;41.822;23.564;2023-02-19T02:59:41;14.23;;;7.70;;
10144;SDS011;5113;41.822;23.564;2023-02-19T03:02:53;14.43;;;6.50;;
10144;SDS011;5113;41.822;23.564;2023-02-19T03:06:02;20.70;;;7.93;;
10144;SDS011;5113;41.822;23.564;2023-02-19T03:09:12;11.57;;;6.10;;
10144;SDS011;5113;41.822;23.564;2023-02-19T03:12:24;15.03;;;6.67;;
10144;SDS011;5113;41.822;23.564;2023-02-19T03:15:53;21.37;;;9.30;;
10144;SDS011;5113;41.822;23.564;2023-02-19T03:19:21;44.93;;;17.77;;
10144;SDS011;5113;41.822;23.564;2023-02-19T03:22:30;23.43;;;12.20;;
10144;SDS011;5113;41.822;23.564;2023-02-19T03:25:41;19.73;;;9.53;;
10144;SDS011;5113;41.822;23.564;2023-02-19T03:29:06;11.53;;;7.47;;
10144;SDS011;5113;41.822;23.564;2023-02-19T03:32:30;9.70;;;6.70;;
10144;SDS011;5113;41.822;23.564;2023-02-19T03:35:43;10.67;;;6.30;;
10144;SDS011;5113;41.822;23.564;2023-02-19T03:38:53;16.63;;;6.23;;
10144;SDS011;5113;41.822;23.564;2023-02-19T03:42:06;10.83;;;6.20;;
10144;SDS011;5113;41.822;23.564;2023-02-19T03:45:25;19.60;;;10.43;;
10144;SDS011;5113;41.822;23.564;2023-02-19T03:48:40;29.50;;;10.93;;
10144;SDS011;5113;41.822;23.564;2023-02-19T03:51:56;25.33;;;12.20;;
10144;SDS011;5113;41.822;23.564;2023-02-19T03:55:10;17.97;;;9.83;;
10144;SDS011;5113;41.822;23.564;2023-02-19T03:58:23;13.43;;;10.27;;
10144;SDS011;5113;41.822;23.564;2023-02-19T04:01:36;11.43;;;7.17;;
10144;SDS011;5113;41.822;23.564;2023-02-19T04:04:47;10.13;;;6.10;;
10144;SDS011;5113;41.822;23.564;2023-02-19T04:08:01;6.77;;;6.10;;
10144;SDS011;5113;41.822;23.564;2023-02-19T04:11:11;5.53;;;5.03;;
10144;SDS011;5113;41.822;23.564;2023-02-19T04:14:21;10.70;;;6.80;;
10144;SDS011;5113;41.822;23.564;2023-02-19T04:17:30;15.93;;;7.70;;
10144;SDS011;5113;41.822;23.564;2023-02-19T04:20:41;10.07;;;7.33;;
10144;SDS011;5113;41.822;23.564;2023-02-19T04:23:50;10.03;;;7.50;;
10144;SDS011;5113;41.822;23.564;2023-02-19T04:26:57;8.50;;;5.77;;
10144;SDS011;5113;41.822;23.564;2023-02-19T04:30:04;9.33;;;5.63;;
10144;SDS011;5113;41.822;23.564;2023-02-19T04:33:13;6.97;;;4.80;;
10144;SDS011;5113;41.822;23.564;2023-02-19T04:36:19;14.03;;;6.80;;
10144;SDS011;5113;41.822;23.564;2023-02-19T04:39:27;10.73;;;8.40;;
10144;SDS011;5113;41.822;23.564;2023-02-19T04:42:33;16.80;;;9.60;;
10144;SDS011;5113;41.822;23.564;2023-02-19T04:45:40;21.23;;;10.07;;
10144;SDS011;5113;41.822;23.564;2023-02-19T04:48:46;24.30;;;10.87;;
10144;SDS011;5113;41.822;23.564;2023-02-19T04:51:53;21.60;;;9.97;;
10144;SDS011;5113;41.822;23.564;2023-02-19T04:55:00;20.93;;;9.87;;
10144;SDS011;5113;41.822;23.564;2023-02-19T04:58:07;17.37;;;12.13;;
10144;SDS011;5113;41.822;23.564;2023-02-19T05:01:13;44.83;;;21.10;;
10144;SDS011;5113;41.822;23.564;2023-02-19T05:04:19;34.37;;;14.90;;
10144;SDS011;5113;41.822;23.564;2023-02-19T05:07:25;26.50;;;12.07;;
10144;SDS011;5113;41.822;23.564;2023-02-19T05:10:33;28.90;;;15.63;;
10144;SDS011;5113;41.822;23.564;2023-02-19T05:13:39;23.63;;;14.07;;
10144;SDS011;5113;41.822;23.564;2023-02-19T05:16:46;16.57;;;10.80;;
10144;SDS011;5113;41.822;23.564;2023-02-19T05:19:52;18.43;;;10.13;;
10144;SDS011;5113;41.822;23.564;2023-02-19T05:22:59;28.37;;;14.13;;
10144;SDS011;5113;41.822;23.564;2023-02-19T05:26:07;18.70;;;10.77;;
10144;SDS011;5113;41.822;23.564;2023-02-19T05:29:16;11.77;;;8.73;;
10144;SDS011;5113;41.822;23.564;2023-02-19T05:32:22;17.80;;;8.60;;
10144;SDS011;5113;41.822;23.564;2023-02-19T05:35:29;18.33;;;8.03;;
10144;SDS011;5113;41.822;23.564;2023-02-19T05:38:36;25.93;;;15.07;;
10144;SDS011;5113;41.822;23.564;2023-02-19T05:41:43;29.50;;;16.83;;
10144;SDS011;5113;41.822;23.564;2023-02-19T05:44:50;59.67;;;26.13;;
10144;SDS011;5113;41.822;23.564;2023-02-19T05:47:56;50.30;;;25.50;;
10144;SDS011;5113;41.822;23.564;2023-02-19T05:51:03;49.80;;;26.93;;
10144;SDS011;5113;41.822;23.564;2023-02-19T05:54:11;58.90;;;28.03;;
10144;SDS011;5113;41.822;23.564;2023-02-19T05:57:19;48.03;;;25.10;;
10144;SDS011;5113;41.822;23.564;2023-02-19T06:00:25;43.43;;;21.90;;
10144;SDS011;5113;41.822;23.564;2023-02-19T06:03:31;38.60;;;20.20;;
10144;SDS011;5113;41.822;23.564;2023-02-19T06:06:38;39.57;;;17.87;;
10144;SDS011;5113;41.822;23.564;2023-02-19T06:09:44;34.77;;;17.50;;
10144;SDS011;5113;41.822;23.564;2023-02-19T06:12:53;46.00;;;20.00;;
10144;SDS011;5113;41.822;23.564;2023-02-19T06:15:59;38.57;;;19.63;;
10144;SDS011;5113;41.822;23.564;2023-02-19T06:19:08;41.70;;;24.00;;
10144;SDS011;5113;41.822;23.564;2023-02-19T06:22:15;42.23;;;24.80;;
10144;SDS011;5113;41.822;23.564;2023-02-19T06:25:22;44.90;;;24.53;;
10144;SDS011;5113;41.822;23.564;2023-02-19T06:28:29;60.50;;;29.50;;
10144;SDS011;5113;41.822;23.564;2023-02-19T06:31:36;70.60;;;34.67;;
10144;SDS011;5113;41.822;23.564;2023-02-19T06:34:42;67.27;;;31.07;;
10144;SDS011;5113;41.822;23.564;2023-02-19T06:37:49;67.83;;;32.80;;
10144;SDS011;5113;41.822;23.564;2023-02-19T06:40:58;93.97;;;40.60;;
10144;SDS011;5113;41.822;23.564;2023-02-19T06:44:06;96.07;;;41.97;;
10144;SDS011;5113;41.822;23.564;2023-02-19T06:47:12;87.67;;;40.27;;
10144;SDS011;5113;41.822;23.564;2023-02-19T06:50:19;70.67;;;37.13;;
10144;SDS011;5113;41.822;23.564;2023-02-19T06:53:25;53.80;;;31.80;;
10144;SDS011;5113;41.822;23.564;2023-02-19T06:56:32;62.03;;;29.97;;
10144;SDS011;5113;41.822;23.564;2023-02-19T06:59:41;69.70;;;31.00;;
10144;SDS011;5113;41.822;23.564;2023-02-19T07:03:05;59.27;;;29.80;;
10144;SDS011;5113;41.822;23.564;2023-02-19T07:06:11;75.30;;;37.23;;
10144;SDS011;5113;41.822;23.564;2023-02-19T07:09:17;89.20;;;40.63;;
10144;SDS011;5113;41.822;23.564;2023-02-19T07:12:24;64.33;;;33.73;;
10144;SDS011;5113;41.822;23.564;2023-02-19T07:15:31;54.20;;;27.67;;
10144;SDS011;5113;41.822;23.564;2023-02-19T07:18:38;62.50;;;30.07;;
10144;SDS011;5113;41.822;23.564;2023-02-19T07:21:45;50.70;;;29.73;;
10144;SDS011;5113;41.822;23.564;2023-02-19T07:24:52;62.77;;;32.67;;
10144;SDS011;5113;41.822;23.564;2023-02-19T07:27:58;51.43;;;29.80;;
10144;SDS011;5113;41.822;23.564;2023-02-19T07:31:06;66.43;;;34.10;;
10144;SDS011;5113;41.822;23.564;2023-02-19T07:34:14;71.97;;;31.87;;
10144;SDS011;5113;41.822;23.564;2023-02-19T07:37:20;61.03;;;28.13;;
10144;SDS011;5113;41.822;23.564;2023-02-19T07:40:27;47.33;;;22.00;;
10144;SDS011;5113;41.822;23.564;2023-02-19T07:43:34;38.43;;;20.23;;
10144;SDS011;5113;41.822;23.564;2023-02-19T07:46:43;26.90;;;14.77;;
10144;SDS011;5113;41.822;23.564;2023-02-19T07:49:50;13.23;;;9.20;;
10144;SDS011;5113;41.822;23.564;2023-02-19T07:52:56;15.50;;;8.53;;
10144;SDS011;5113;41.822;23.564;2023-02-19T07:56:04;18.77;;;12.03;;
10144;SDS011;5113;41.822;23.564;2023-02-19T07:59:11;15.53;;;10.10;;
10144;SDS011;5113;41.822;23.564;2023-02-19T08:02:20;17.53;;;7.87;;
10144;SDS011;5113;41.822;23.564;2023-02-19T08:05:44;13.13;;;7.97;;
10144;SDS011;5113;41.822;23.564;2023-02-19T08:08:50;9.77;;;5.50;;
10144;SDS011;5113;41.822;23.564;2023-02-19T08:12:00;11.43;;;8.20;;
10144;SDS011;5113;41.822;23.564;2023-02-19T08:15:23;33.33;;;13.23;;
10144;SDS011;5113;41.822;23.564;2023-02-19T08:18:31;29.87;;;13.03;;
10144;SDS011;5113;41.822;23.564;2023-02-19T08:21:38;10.00;;;6.80;;
10144;SDS011;5113;41.822;23.564;2023-02-19T08:24:44;11.37;;;5.27;;
10144;SDS011;5113;41.822;23.564;2023-02-19T08:27:51;10.17;;;4.80;;
10144;SDS011;5113;41.822;23.564;2023-02-19T08:30:58;7.10;;;4.80;;
10144;SDS011;5113;41.822;23.564;2023-02-19T08:34:07;7.23;;;5.20;;
10144;SDS011;5113;41.822;23.564;2023-02-19T08:37:14;4.90;;;3.47;;
10144;SDS011;5113;41.822;23.564;2023-02-19T08:40:20;8.40;;;5.33;;
10144;SDS011;5113;41.822;23.564;2023-02-19T08:43:27;11.57;;;6.93;;
10144;SDS011;5113;41.822;23.564;2023-02-19T08:46:33;16.73;;;6.00;;
10144;SDS011;5113;41.822;23.564;2023-02-19T08:49:41;7.97;;;3.80;;
10144;SDS011;5113;41.822;23.564;2023-02-19T08:52:48;6.67;;;3.73;;
10144;SDS011;5113;41.822;23.564;2023-02-19T08:55:54;6.40;;;3.90;;
10144;SDS011;5113;41.822;23.564;2023-02-19T08:59:01;3.77;;;3.00;;
10144;SDS011;5113;41.822;23.564;2023-02-19T09:02:07;8.50;;;5.83;;
10144;SDS011;5113;41.822;23.564;2023-02-19T09:05:17;5.93;;;4.53;;
10144;SDS011;5113;41.822;23.564;2023-02-19T09:08:23;6.90;;;3.80;;
10144;SDS011;5113;41.822;23.564;2023-02-19T09:11:30;5.47;;;3.83;;
10144;SDS011;5113;41.822;23.564;2023-02-19T09:14:36;15.60;;;7.20;;
10144;SDS011;5113;41.822;23.564;2023-02-19T09:17:43;17.43;;;6.97;;
10144;SDS011;5113;41.822;23.564;2023-02-19T09:20:50;12.97;;;7.37;;
10144;SDS011;5113;41.822;23.564;2023-02-19T09:23:57;12.80;;;7.83;;
10144;SDS011;5113;41.822;23.564;2023-02-19T09:27:03;10.27;;;5.87;;
10144;SDS011;5113;41.822;23.564;2023-02-19T09:30:09;3.73;;;3.27;;
10144;SDS011;5113;41.822;23.564;2023-02-19T09:33:16;7.77;;;5.27;;
10144;SDS011;5113;41.822;23.564;2023-02-19T09:36:23;7.07;;;3.97;;
10144;SDS011;5113;41.822;23.564;2023-02-19T09:39:30;8.10;;;4.33;;
10144;SDS011;5113;41.822;23.564;2023-02-19T09:42:36;9.23;;;6.07;;
10144;SDS011;5113;41.822;23.564;2023-02-19T09:45:46;4.30;;;3.47;;
10144;SDS011;5113;41.822;23.564;2023-02-19T09:48:54;7.27;;;3.40;;
10144;SDS011;5113;41.822;23.564;2023-02-19T09:52:11;4.50;;;3.93;;
10144;SDS011;5113;41.822;23.564;2023-02-19T09:55:24;4.27;;;3.17;;
10144;SDS011;5113;41.822;23.564;2023-02-19T09:58:39;6.23;;;4.10;;
10144;SDS011;5113;41.822;23.564;2023-02-19T10:01:52;8.03;;;6.50;;
10144;SDS011;5113;41.822;23.564;2023-02-19T10:05:02;9.67;;;6.17;;
10144;SDS011;5113;41.822;23.564;2023-02-19T10:08:18;3.43;;;3.13;;
10144;SDS011;5113;41.822;23.564;2023-02-19T10:11:26;4.10;;;3.23;;
10144;SDS011;5113;41.822;23.564;2023-02-19T10:14:33;6.83;;;4.23;;
10144;SDS011;5113;41.822;23.564;2023-02-19T10:17:42;8.40;;;4.50;;
10144;SDS011;5113;41.822;23.564;2023-02-19T10:20:48;4.93;;;3.53;;
10144;SDS011;5113;41.822;23.564;2023-02-19T10:23:59;11.23;;;5.10;;
10144;SDS011;5113;41.822;23.564;2023-02-19T10:27:10;5.87;;;3.60;;
10144;SDS011;5113;41.822;23.564;2023-02-19T10:30:18;3.03;;;2.80;;
10144;SDS011;5113;41.822;23.564;2023-02-19T10:33:27;6.23;;;4.03;;
10144;SDS011;5113;41.822;23.564;2023-02-19T10:36:34;3.63;;;3.33;;
10144;SDS011;5113;41.822;23.564;2023-02-19T10:39:45;4.40;;;3.60;;
10144;SDS011;5113;41.822;23.564;2023-02-19T10:42:53;3.40;;;2.67;;
10144;SDS011;5113;41.822;23.564;2023-02-19T10:46:03;3.73;;;3.37;;
10144;SDS011;5113;41.822;23.564;2023-02-19T10:49:16;3.23;;;2.70;;
10144;SDS011;5113;41.822;23.564;2023-02-19T10:52:28;8.83;;;4.23;;
10144;SDS011;5113;41.822;23.564;2023-02-19T10:55:39;5.40;;;4.47;;
10144;SDS011;5113;41.822;23.564;2023-02-19T10:58:45;6.93;;;4.53;;
10144;SDS011;5113;41.822;23.564;2023-02-19T11:01:55;4.83;;;4.00;;
10144;SDS011;5113;41.822;23.564;2023-02-19T11:05:15;8.77;;;4.73;;
10144;SDS011;5113;41.822;23.564;2023-02-19T11:08:24;10.77;;;4.57;;
10144;SDS011;5113;41.822;23.564;2023-02-19T11:11:32;7.33;;;5.23;;
10144;SDS011;5113;41.822;23.564;2023-02-19T11:14:41;5.80;;;4.40;;
10144;SDS011;5113;41.822;23.564;2023-02-19T11:17:59;4.43;;;3.27;;
10144;SDS011;5113;41.822;23.564;2023-02-19T11:21:17;3.73;;;3.43;;
10144;SDS011;5113;41.822;23.564;2023-02-19T11:24:32;4.97;;;4.20;;
10144;SDS011;5113;41.822;23.564;2023-02-19T11:27:53;7.43;;;4.10;;
10144;SDS011;5113;41.822;23.564;2023-02-19T11:31:12;5.87;;;4.57;;
10144;SDS011;5113;41.822;23.564;2023-02-19T11:34:25;6.17;;;3.90;;
10144;SDS011;5113;41.822;23.564;2023-02-19T11:37:34;7.63;;;3.70;;
10144;SDS011;5113;41.822;23.564;2023-02-19T11:40:42;4.17;;;3.83;;
10144;SDS011;5113;41.822;23.564;2023-02-19T11:44:02;4.37;;;3.60;;
10144;SDS011;5113;41.822;23.564;2023-02-19T11:47:29;6.53;;;4.70;;
10144;SDS011;5113;41.822;23.564;2023-02-19T11:50:51;6.30;;;4.80;;
10144;SDS011;5113;41.822;23.564;2023-02-19T11:54:08;5.03;;;3.70;;
10144;SDS011;5113;41.822;23.564;2023-02-19T11:57:28;8.57;;;4.87;;
10144;SDS011;5113;41.822;23.564;2023-02-19T12:00:43;12.10;;;6.53;;
10144;SDS011;5113;41.822;23.564;2023-02-19T12:07:41;16.33;;;8.33;;
10144;SDS011;5113;41.822;23.564;2023-02-19T12:11:16;16.00;;;7.77;;
10144;SDS011;5113;41.822;23.564;2023-02-19T12:14:45;22.17;;;9.80;;
10144;SDS011;5113;41.822;23.564;2023-02-19T12:21:40;9.27;;;5.60;;
10144;SDS011;5113;41.822;23.564;2023-02-19T12:25:01;15.00;;;8.70;;
10144;SDS011;5113;41.822;23.564;2023-02-19T12:28:35;3.07;;;2.83;;
10144;SDS011;5113;41.822;23.564;2023-02-19T12:32:15;2.93;;;2.73;;
10144;SDS011;5113;41.822;23.564;2023-02-19T12:35:50;7.40;;;4.10;;
10144;SDS011;5113;41.822;23.564;2023-02-19T12:39:05;5.67;;;2.90;;
10144;SDS011;5113;41.822;23.564;2023-02-19T12:42:20;3.83;;;2.90;;
10144;SDS011;5113;41.822;23.564;2023-02-19T12:45:42;4.30;;;3.23;;
10144;SDS011;5113;41.822;23.564;2023-02-19T12:48:55;3.13;;;2.80;;
10144;SDS011;5113;41.822;23.564;2023-02-19T12:52:08;2.90;;;2.70;;
10144;SDS011;5113;41.822;23.564;2023-02-19T12:55:23;5.60;;;4.77;;
10144;SDS011;5113;41.822;23.564;2023-02-19T12:58:37;11.10;;;4.77;;
10144;SDS011;5113;41.822;23.564;2023-02-19T13:01:49;10.53;;;5.27;;
10144;SDS011;5113;41.822;23.564;2023-02-19T13:05:01;10.10;;;4.50;;
10144;SDS011;5113;41.822;23.564;2023-02-19T13:08:17;9.37;;;7.70;;
10144;SDS011;5113;41.822;23.564;2023-02-19T13:11:30;4.80;;;3.80;;
10144;SDS011;5113;41.822;23.564;2023-02-19T13:14:41;6.60;;;5.27;;
10144;SDS011;5113;41.822;23.564;2023-02-19T13:17:52;5.67;;;5.10;;
10144;SDS011;5113;41.822;23.564;2023-02-19T13:21:04;8.17;;;5.40;;
10144;SDS011;5113;41.822;23.564;2023-02-19T13:24:15;9.67;;;4.90;;
10144;SDS011;5113;41.822;23.564;2023-02-19T13:27:36;3.87;;;3.10;;
10144;SDS011;5113;41.822;23.564;2023-02-19T13:31:05;10.47;;;4.80;;
10144;SDS011;5113;41.822;23.564;2023-02-19T13:34:32;9.67;;;5.20;;
10144;SDS011;5113;41.822;23.564;2023-02-19T13:37:52;5.90;;;3.83;;
10144;SDS011;5113;41.822;23.564;2023-02-19T13:41:01;6.50;;;4.83;;
10144;SDS011;5113;41.822;23.564;2023-02-19T13:44:14;6.20;;;5.10;;
10144;SDS011;5113;41.822;23.564;2023-02-19T13:54:32;7.90;;;4.57;;
10144;SDS011;5113;41.822;23.564;2023-02-19T13:57:45;4.90;;;4.40;;
10144;SDS011;5113;41.822;23.564;2023-02-19T14:00:51;6.70;;;4.87;;
10144;SDS011;5113;41.822;23.564;2023-02-19T14:04:05;8.27;;;4.27;;
10144;SDS011;5113;41.822;23.564;2023-02-19T14:10:56;14.87;;;5.60;;
10144;SDS011;5113;41.822;23.564;2023-02-19T14:14:25;9.77;;;6.63;;
10144;SDS011;5113;41.822;23.564;2023-02-19T14:17:37;10.30;;;5.97;;
10144;SDS011;5113;41.822;23.564;2023-02-19T14:20:44;9.97;;;7.03;;
10144;SDS011;5113;41.822;23.564;2023-02-19T14:23:51;14.80;;;7.37;;
10144;SDS011;5113;41.822;23.564;2023-02-19T14:27:00;18.27;;;9.03;;
10144;SDS011;5113;41.822;23.564;2023-02-19T14:30:09;15.00;;;8.57;;
10144;SDS011;5113;41.822;23.564;2023-02-19T14:33:18;12.83;;;8.73;;
10144;SDS011;5113;41.822;23.564;2023-02-19T14:36:30;22.60;;;12.27;;
10144;SDS011;5113;41.822;23.564;2023-02-19T14:39:40;21.57;;;10.93;;
10144;SDS011;5113;41.822;23.564;2023-02-19T14:42:49;32.13;;;17.80;;
10144;SDS011;5113;41.822;23.564;2023-02-19T14:46:03;37.93;;;21.97;;
10144;SDS011;5113;41.822;23.564;2023-02-19T14:49:21;33.97;;;22.30;;
10144;SDS011;5113;41.822;23.564;2023-02-19T14:52:34;29.77;;;19.43;;
10144;SDS011;5113;41.822;23.564;2023-02-19T14:55:44;36.50;;;19.77;;
10144;SDS011;5113;41.822;23.564;2023-02-19T14:59:05;42.90;;;21.13;;
10144;SDS011;5113;41.822;23.564;2023-02-19T15:02:22;38.70;;;18.83;;
10144;SDS011;5113;41.822;23.564;2023-02-19T15:05:31;57.97;;;26.07;;
10144;SDS011;5113;41.822;23.564;2023-02-19T15:08:41;29.87;;;16.63;;
10144;SDS011;5113;41.822;23.564;2023-02-19T15:11:51;28.73;;;16.10;;
10144;SDS011;5113;41.822;23.564;2023-02-19T15:15:01;32.57;;;18.33;;
10144;SDS011;5113;41.822;23.564;2023-02-19T15:18:14;42.90;;;20.27;;
10144;SDS011;5113;41.822;23.564;2023-02-19T15:21:24;35.60;;;18.70;;
10144;SDS011;5113;41.822;23.564;2023-02-19T15:24:32;27.80;;;16.70;;
10144;SDS011;5113;41.822;23.564;2023-02-19T15:27:39;30.70;;;16.63;;
10144;SDS011;5113;41.822;23.564;2023-02-19T15:30:45;21.27;;;11.17;;
10144;SDS011;5113;41.822;23.564;2023-02-19T15:33:53;23.47;;;14.03;;
10144;SDS011;5113;41.822;23.564;2023-02-19T15:37:01;22.37;;;14.67;;
10144;SDS011;5113;41.822;23.564;2023-02-19T15:40:11;24.23;;;13.37;;
10144;SDS011;5113;41.822;23.564;2023-02-19T15:43:19;19.67;;;13.43;;
10144;SDS011;5113;41.822;23.564;2023-02-19T15:46:29;23.37;;;13.80;;
10144;SDS011;5113;41.822;23.564;2023-02-19T15:49:40;25.37;;;15.47;;
10144;SDS011;5113;41.822;23.564;2023-02-19T15:52:53;27.33;;;17.27;;
10144;SDS011;5113;41.822;23.564;2023-02-19T15:56:07;28.77;;;15.47;;
10144;SDS011;5113;41.822;23.564;2023-02-19T15:59:18;37.17;;;18.60;;
10144;SDS011;5113;41.822;23.564;2023-02-19T16:02:29;40.00;;;18.23;;
10144;SDS011;5113;41.822;23.564;2023-02-19T16:05:38;23.50;;;12.93;;
10144;SDS011;5113;41.822;23.564;2023-02-19T16:08:45;16.80;;;11.10;;
10144;SDS011;5113;41.822;23.564;2023-02-19T16:12:17;30.97;;;17.90;;
10144;SDS011;5113;41.822;23.564;2023-02-19T16:15:26;104.17;;;44.30;;
10144;SDS011;5113;41.822;23.564;2023-02-19T16:18:33;140.60;;;55.50;;
10144;SDS011;5113;41.822;23.564;2023-02-19T16:21:41;108.27;;;49.50;;
10144;SDS011;5113;41.822;23.564;2023-02-19T16:24:49;100.33;;;49.87;;
10144;SDS011;5113;41.822;23.564;2023-02-19T16:27:57;106.27;;;49.00;;
10144;SDS011;5113;41.822;23.564;2023-02-19T16:31:04;101.30;;;48.70;;
10144;SDS011;5113;41.822;23.564;2023-02-19T16:34:16;94.33;;;43.77;;
10144;SDS011;5113;41.822;23.564;2023-02-19T16:37:32;83.13;;;36.23;;
10144;SDS011;5113;41.822;23.564;2023-02-19T16:44:28;94.73;;;46.10;;
10144;SDS011;5113;41.822;23.564;2023-02-19T16:47:36;72.47;;;36.23;;
10144;SDS011;5113;41.822;23.564;2023-02-19T16:50:45;85.23;;;41.40;;
10144;SDS011;5113;41.822;23.564;2023-02-19T16:53:53;54.77;;;30.87;;
10144;SDS011;5113;41.822;23.564;2023-02-19T16:56:59;56.23;;;24.53;;
10144;SDS011;5113;41.822;23.564;2023-02-19T17:00:05;57.47;;;29.73;;
10144;SDS011;5113;41.822;23.564;2023-02-19T17:03:13;31.67;;;20.07;;
10144;SDS011;5113;41.822;23.564;2023-02-19T17:06:22;50.13;;;26.37;;
10144;SDS011;5113;41.822;23.564;2023-02-19T17:09:30;55.93;;;27.03;;
10144;SDS011;5113;41.822;23.564;2023-02-19T17:12:36;64.80;;;30.73;;
10144;SDS011;5113;41.822;23.564;2023-02-19T17:15:43;69.37;;;31.93;;
10144;SDS011;5113;41.822;23.564;2023-02-19T17:18:49;101.23;;;43.43;;
10144;SDS011;5113;41.822;23.564;2023-02-19T17:21:56;127.50;;;59.00;;
10144;SDS011;5113;41.822;23.564;2023-02-19T17:25:05;92.33;;;42.60;;
10144;SDS011;5113;41.822;23.564;2023-02-19T17:28:12;130.50;;;54.37;;
10144;SDS011;5113;41.822;23.564;2023-02-19T17:31:18;49.13;;;24.43;;
10144;SDS011;5113;41.822;23.564;2023-02-19T17:34:25;61.20;;;29.20;;
10144;SDS011;5113;41.822;23.564;2023-02-19T17:37:32;49.20;;;25.33;;
10144;SDS011;5113;41.822;23.564;2023-02-19T17:40:39;47.43;;;23.33;;
10144;SDS011;5113;41.822;23.564;2023-02-19T17:43:46;66.30;;;28.03;;
10144;SDS011;5113;41.822;23.564;2023-02-19T17:46:54;70.00;;;27.67;;
10144;SDS011;5113;41.822;23.564;2023-02-19T17:50:00;54.47;;;28.00;;
10144;SDS011;5113;41.822;23.564;2023-02-19T17:53:08;56.43;;;25.70;;
10144;SDS011;5113;41.822;23.564;2023-02-19T17:56:16;32.10;;;16.17;;
10144;SDS011;5113;41.822;23.564;2023-02-19T17:59:24;42.63;;;18.53;;
10144;SDS011;5113;41.822;23.564;2023-02-19T18:02:31;38.27;;;19.43;;
10144;SDS011;5113;41.822;23.564;2023-02-19T18:05:37;62.33;;;30.13;;
10144;SDS011;5113;41.822;23.564;2023-02-19T18:08:48;64.43;;;31.20;;
10144;SDS011;5113;41.822;23.564;2023-02-19T18:11:56;69.63;;;33.50;;
10144;SDS011;5113;41.822;23.564;2023-02-19T18:15:03;77.47;;;32.60;;
10144;SDS011;5113;41.822;23.564;2023-02-19T18:18:10;61.87;;;35.50;;
10144;SDS011;5113;41.822;23.564;2023-02-19T18:21:16;71.03;;;32.63;;
10144;SDS011;5113;41.822;23.564;2023-02-19T18:24:23;73.90;;;35.63;;
10144;SDS011;5113;41.822;23.564;2023-02-19T18:27:31;85.77;;;38.97;;
10144;SDS011;5113;41.822;23.564;2023-02-19T18:30:37;67.70;;;32.60;;
10144;SDS011;5113;41.822;23.564;2023-02-19T18:33:44;60.40;;;31.77;;
10144;SDS011;5113;41.822;23.564;2023-02-19T18:36:51;77.30;;;35.30;;
10144;SDS011;5113;41.822;23.564;2023-02-19T18:39:57;74.37;;;35.57;;
10144;SDS011;5113;41.822;23.564;2023-02-19T18:43:05;89.73;;;40.83;;
10144;SDS011;5113;41.822;23.564;2023-02-19T18:46:12;65.23;;;29.67;;
10144;SDS011;5113;41.822;23.564;2023-02-19T18:49:18;80.57;;;33.70;;
10144;SDS011;5113;41.822;23.564;2023-02-19T18:52:25;79.80;;;36.50;;
10144;SDS011;5113;41.822;23.564;2023-02-19T18:55:31;122.80;;;48.00;;
10144;SDS011;5113;41.822;23.564;2023-02-19T18:58:39;91.60;;;39.73;;
10144;SDS011;5113;41.822;23.564;2023-02-19T19:01:45;65.47;;;29.60;;
10144;SDS011;5113;41.822;23.564;2023-02-19T19:04:51;49.47;;;24.60;;
10144;SDS011;5113;41.822;23.564;2023-02-19T19:07:59;70.07;;;36.10;;
10144;SDS011;5113;41.822;23.564;2023-02-19T19:11:05;59.47;;;30.50;;